Time;durP1;ratioP1;P1;durP2;ratioP2;P2;SDS_P1;SDS_P2;PMS_P1;PMS_P2;Temp;Humidity;BMP_temperature;BMP_pressure;BME280_temperature;BME280_humidity;BME280_pressure;Samples;Min_cycle;Max_cycle;Signal;HPM_P1;HPM_P2
2022/08/02 18:31:57;;;;;;;1.00;0.50;;;;;;;30.47;26.31;99608.28;4499271;31;84057;-81
2022/08/02 18:34:30;;;;;;;0.68;0.50;;;;;;;30.47;26.31;99608.28;4487184;31;32096;-81
2022/08/02 18:36:58;;;;;;;0.50;0.35;;;;;;;29.92;26.50;99608.25;4491629;31;33254;-80
2022/08/02 18:39:27;;;;;;;1.08;0.57;;;;;;;29.75;26.75;99609.84;4495183;32;34882;-81
2022/08/02 18:42:00;;;;;;;1.02;0.43;;;;;;;29.67;27.79;99617.72;4476913;32;34373;-80
2022/08/02 18:44:29;;;;;;;0.80;0.40;;;;;;;29.61;28.60;99620.97;4475591;32;33438;-80
2022/08/02 18:46:59;;;;;;;0.50;0.50;;;;;;;29.57;28.58;99617.72;4475691;32;33633;-82
2022/08/02 18:49:29;;;;;;;2.67;0.50;;;;;;;29.41;29.29;99618.34;4475980;32;36329;-82
2022/08/02 18:52:14;;;;;;;3.78;0.60;;;;;;;29.41;29.83;99621.00;4475924;32;33987;-81
2022/08/02 18:54:58;;;;;;;2.40;0.50;;;;;;;29.32;31.53;99624.53;4485531;31;33149;-81
2022/08/02 18:57:27;;;;;;;1.52;0.60;;;;;;;29.10;32.22;99621.16;4487654;32;33816;-83
2022/08/02 19:00:16;;;;;;;1.02;0.50;;;;;;;29.10;32.47;99623.84;4481683;32;34814;-82
2022/08/02 19:02:54;;;;;;;1.42;0.90;;;;;;;28.99;32.44;99626.59;4481520;32;33495;-81
2022/08/02 19:05:23;;;;;;;0.85;0.50;;;;;;;28.76;32.82;99623.34;4480730;32;33431;-81
2022/08/02 19:08:12;;;;;;;1.33;0.57;;;;;;;28.62;32.74;99631.75;4488473;31;33536;-81
2022/08/02 19:10:42;;;;;;;0.60;0.50;;;;;;;28.50;33.20;99629.19;4484894;32;34070;-80
2022/08/02 19:13:18;;;;;;;0.98;0.50;;;;;;;28.34;33.71;99630.66;4486061;32;34011;-81
2022/08/02 19:15:48;;;;;;;1.67;0.67;;;;;;;28.17;32.11;99626.81;4486317;32;34125;-81
2022/08/02 19:18:18;;;;;;;11.20;0.90;;;;;;;28.17;32.20;99634.81;4481434;32;34481;-81
2022/08/02 19:20:54;;;;;;;3.55;0.52;;;;;;;28.25;32.48;99635.00;4488407;32;33568;-82
2022/08/02 19:23:32;;;;;;;2.33;0.65;;;;;;;28.16;32.91;99635.81;4484749;31;33916;-82
2022/08/02 19:26:02;;;;;;;1.00;0.60;;;;;;;27.98;32.80;99636.44;4484571;32;33798;-81
2022/08/02 19:28:31;;;;;;;3.28;0.85;;;;;;;27.68;32.99;99637.22;4471120;31;34489;-80
2022/08/02 19:31:01;;;;;;;1.20;0.60;;;;;;;27.75;33.98;99637.53;4467691;32;34816;-80
2022/08/02 19:33:31;;;;;;;1.80;0.90;;;;;;;27.71;34.46;99631.59;4463277;32;33734;-81
2022/08/02 19:36:21;;;;;;;;;;;;;;;27.65;33.90;99632.16;4461309;32;33037;-80
2022/08/02 19:38:54;;;;;;;0.82;0.60;;;;;;;27.51;34.22;99643.13;4467067;32;34557;-80
2022/08/02 19:41:24;;;;;;;1.40;0.80;;;;;;;27.38;34.64;99635.34;4462204;32;33387;-81
2022/08/02 19:43:53;;;;;;;0.55;0.50;;;;;;;27.35;34.64;99632.91;4463225;32;33717;-82
2022/08/02 19:46:42;;;;;;;1.55;1.00;;;;;;;27.28;34.48;99629.94;4460532;32;33282;-80
2022/08/02 19:49:18;;;;;;;1.00;0.62;;;;;;;27.00;34.74;99626.03;4459730;32;33878;-80
2022/08/02 19:52:08;;;;;;;0.77;0.50;;;;;;;26.94;34.82;99629.19;4456229;32;33510;-81
2022/08/02 19:54:49;;;;;;;0.45;0.45;;;;;;;26.87;34.68;99633.31;4455306;32;33894;-81
2022/08/02 19:57:24;;;;;;;0.85;0.60;;;;;;;26.87;34.86;99628.88;4461958;32;33384;-82
2022/08/02 19:59:53;;;;;;;0.50;0.50;;;;;;;26.74;34.95;99642.31;4445762;32;33472;-80
2022/08/02 20:02:21;;;;;;;0.90;0.45;;;;;;;26.79;35.67;99639.28;4457411;32;34084;-79
2022/08/02 20:04:52;;;;;;;0.70;0.50;;;;;;;26.65;35.89;99639.53;4453126;32;33847;-79
2022/08/02 20:07:23;;;;;;;1.42;0.80;;;;;;;26.72;34.90;99638.91;4454506;32;33511;-81
2022/08/02 20:10:12;;;;;;;0.57;0.47;;;;;;;26.65;36.24;99637.75;4455770;32;34249;-80
2022/08/02 20:12:52;;;;;;;0.40;0.40;;;;;;;26.55;35.63;99628.81;4468231;32;33921;-81
2022/08/02 20:15:21;;;;;;;1.37;0.53;;;;;;;26.37;35.42;99634.59;4463414;32;34336;-80
2022/08/02 20:18:10;;;;;;;1.45;0.68;;;;;;;26.39;35.30;99638.00;4463764;32;33428;-81
2022/08/02 20:20:42;;;;;;;5.87;1.05;;;;;;;26.45;35.52;99641.13;4463442;32;33906;-80
2022/08/02 20:23:14;;;;;;;1.05;0.60;;;;;;;26.54;35.84;99635.09;4463262;32;33975;-81
2022/08/02 20:26:02;;;;;;;1.65;0.68;;;;;;;26.44;35.48;99644.78;4460376;32;33347;-80
2022/08/02 20:28:30;;;;;;;1.52;0.60;;;;;;;26.33;35.82;99641.13;4462357;32;33260;-80
2022/08/02 20:31:02;;;;;;;0.62;0.47;;;;;;;26.20;36.35;99631.62;4467581;32;33711;-81
2022/08/02 20:33:39;;;;;;;1.37;0.93;;;;;;;26.15;36.09;99637.28;4456571;32;34009;-80
2022/08/02 20:36:25;;;;;;;0.70;0.50;;;;;;;26.35;35.74;99636.53;4463193;32;34536;-80
2022/08/02 20:38:56;;;;;;;;;;;;;;;26.21;36.17;99636.78;4453687;32;33226;-81
2022/08/02 20:41:24;;;;;;;1.67;0.65;;;;;;;26.07;36.35;99637.03;4463076;32;34563;-82
2022/08/02 20:44:14;;;;;;;1.17;0.70;;;;;;;26.04;36.20;99634.63;4462599;32;34773;-81
2022/08/02 20:46:58;;;;;;;1.02;0.60;;;;;;;25.80;36.56;99635.53;4464877;32;34123;-81
2022/08/02 20:49:29;;;;;;;1.50;0.60;;;;;;;25.89;36.65;99645.47;4460707;32;33063;-79
2022/08/02 20:52:10;;;;;;;1.65;1.05;;;;;;;25.98;36.76;99648.41;4454088;32;33570;-81
2022/08/02 20:54:59;;;;;;;1.75;0.70;;;;;;;25.74;36.94;99646.66;4453665;32;33691;-81
2022/08/02 20:57:28;;;;;;;0.57;0.57;;;;;;;25.71;36.66;99647.72;4461439;32;33608;-80
2022/08/02 21:00:17;;;;;;;1.17;0.80;;;;;;;25.70;36.94;99639.88;4451516;32;33453;-80
2022/08/02 21:02:48;;;;;;;1.52;0.82;;;;;;;25.70;36.89;99640.69;4454265;32;33384;-83
2022/08/02 21:05:17;;;;;;;0.40;0.40;;;;;;;25.68;36.55;99641.78;4465263;32;34603;-81
2022/08/02 21:07:57;;;;;;;1.05;0.80;;;;;;;25.64;36.50;99632.38;4459152;32;34246;-80
2022/08/02 21:10:26;;;;;;;0.50;0.50;;;;;;;25.54;37.29;99637.56;4462663;32;33263;-80
2022/08/02 21:12:55;;;;;;;1.02;0.40;;;;;;;25.40;37.60;99643.91;4458403;32;33766;-82
2022/08/02 21:15:24;;;;;;;0.98;0.60;;;;;;;25.41;37.16;99648.25;4456217;32;34741;-81
2022/08/02 21:17:54;;;;;;;1.33;0.70;;;;;;;25.33;37.59;99656.78;4462842;32;33724;-81
2022/08/02 21:20:35;;;;;;;0.68;0.52;;;;;;;24.99;39.15;99658.44;4468180;32;32861;-81
2022/08/02 21:23:06;;;;;;;1.17;0.65;;;;;;;25.47;37.71;99658.41;4457586;32;35321;-80
2022/08/02 21:25:47;;;;;;;0.45;0.45;;;;;;;25.48;37.87;99657.44;4449952;32;34558;-80
2022/08/02 21:28:25;;;;;;;0.32;0.32;;;;;;;25.50;38.06;99654.69;4453210;32;33977;-81
2022/08/02 21:31:14;;;;;;;0.60;0.60;;;;;;;25.38;38.64;99650.28;4458726;32;33346;-81
2022/08/02 21:33:44;;;;;;;0.95;0.57;;;;;;;25.25;38.12;99658.31;4457656;32;33580;-81
2022/08/02 21:36:27;;;;;;;0.88;0.60;;;;;;;25.19;38.70;99656.97;4458294;32;33863;-82
2022/08/02 21:39:01;;;;;;;0.40;0.40;;;;;;;24.81;40.16;99667.72;4460024;32;33394;-82
2022/08/02 21:41:33;;;;;;;0.32;0.32;;;;;;;25.08;38.97;99656.88;4464164;32;33764;-81
2022/08/02 21:44:13;;;;;;;1.83;0.70;;;;;;;24.92;39.70;99657.19;4462163;32;33702;-80
2022/08/02 21:46:44;;;;;;;1.33;0.80;;;;;;;25.07;39.07;99657.84;4461749;32;34046;-80
2022/08/02 21:49:13;;;;;;;1.17;0.73;;;;;;;25.01;39.03;99651.19;4461188;32;33449;-82
2022/08/02 21:51:43;;;;;;;1.10;0.50;;;;;;;25.00;39.59;99660.09;4460017;32;33323;-81
2022/08/02 21:54:19;;;;;;;1.02;0.60;;;;;;;24.92;40.07;99657.19;4460439;32;33868;-80
2022/08/02 21:56:51;;;;;;;1.55;0.70;;;;;;;24.78;40.14;99655.53;4465786;32;33952;-82
2022/08/02 21:59:22;;;;;;;0.40;0.40;;;;;;;24.78;40.13;99646.72;4458217;32;33690;-80
2022/08/02 22:01:54;;;;;;;0.45;0.40;;;;;;;24.79;39.73;99646.62;4457463;32;33252;-81
2022/08/02 22:04:40;;;;;;;0.82;0.65;;;;;;;24.40;40.77;99642.34;4446753;32;34913;-81
2022/08/02 22:07:16;;;;;;;0.52;0.52;;;;;;;24.52;40.15;99651.25;4459285;32;33983;-80
2022/08/02 22:09:53;;;;;;;0.70;0.55;;;;;;;24.46;40.72;99647.25;4458950;32;34170;-82
2022/08/02 22:12:23;;;;;;;2.60;1.25;;;;;;;24.57;40.24;99643.81;4465463;32;33873;-81
2022/08/02 22:14:54;;;;;;;1.37;0.82;;;;;;;24.40;41.07;99642.34;4459083;32;34706;-81
2022/08/02 22:17:25;;;;;;;1.05;0.52;;;;;;;24.43;41.01;99642.97;4462816;32;34066;-79
2022/08/02 22:20:15;;;;;;;0.60;0.60;;;;;;;24.45;41.07;99637.56;4459197;32;33362;-81
2022/08/02 22:22:49;;;;;;;1.00;0.82;;;;;;;24.25;41.69;99639.81;4459085;32;33238;-82
2022/08/02 22:25:24;;;;;;;0.70;0.50;;;;;;;24.24;41.70;99646.09;4460514;32;33582;-80
2022/08/02 22:28:06;;;;;;;2.10;1.27;;;;;;;24.11;42.08;99647.91;4455956;32;34095;-82
2022/08/02 22:30:55;;;;;;;0.70;0.67;;;;;;;24.27;41.72;99637.91;4459042;32;33623;-82
2022/08/02 22:36:29;;;;;;;1.33;0.70;;;;;;;24.23;41.78;99648.84;4446602;32;34890;-82
2022/08/02 22:38:59;;;;;;;0.45;0.45;;;;;;;24.13;41.96;99650.44;4454224;32;34521;-82
2022/08/02 22:41:30;;;;;;;0.85;0.65;;;;;;;24.21;41.92;99648.97;4455072;32;32883;-81
2022/08/02 22:44:19;;;;;;;0.95;0.70;;;;;;;24.15;42.12;99652.03;4449417;32;34147;-82
2022/08/02 22:46:48;;;;;;;1.05;0.75;;;;;;;24.22;42.61;99655.94;4467705;32;34523;-83
2022/08/02 22:49:18;;;;;;;0.85;0.68;;;;;;;24.09;42.44;99655.12;4459316;32;34783;-81
2022/08/02 22:52:07;;;;;;;0.80;0.50;;;;;;;24.17;41.88;99666.03;4448080;32;34547;-83
2022/08/02 22:54:38;;;;;;;0.52;0.52;;;;;;;24.18;41.86;99662.41;4455009;32;33343;-81
2022/08/02 22:57:08;;;;;;;2.65;0.90;;;;;;;24.04;42.55;99674.00;4459500;32;33963;-82
2022/08/02 22:59:39;;;;;;;0.60;0.60;;;;;;;23.80;43.30;99671.25;4446755;32;33839;-80
2022/08/02 23:02:09;;;;;;;2.03;0.88;;;;;;;23.97;43.19;99658.59;4458519;32;32828;-81
2022/08/02 23:04:55;;;;;;;;;;;;;;;;;;;;;
2022/08/02 23:07:34;;;;;;;1.12;0.60;;;;;;;24.05;42.85;99666.88;4445825;32;33439;-80
2022/08/02 23:10:07;;;;;;;1.85;0.70;;;;;;;23.99;44.08;99670.81;4454255;32;34020;-81
2022/08/02 23:12:37;;;;;;;4.40;0.65;;;;;;;23.73;44.78;99664.66;4460240;32;34418;-82
2022/08/02 23:15:07;;;;;;;1.67;0.80;;;;;;;23.68;44.71;99669.41;4456995;32;35475;-80
2022/08/02 23:20:22;;;;;;;1.02;0.80;;;;;;;23.71;44.98;99665.69;4459452;32;34037;-82
2022/08/02 23:22:51;;;;;;;1.20;0.90;;;;;;;23.61;45.58;99665.47;4454068;32;33882;-82
2022/08/02 23:25:23;;;;;;;1.62;1.08;;;;;;;23.57;45.01;99663.97;4452305;32;32509;-81
2022/08/02 23:27:53;;;;;;;3.53;0.90;;;;;;;23.55;45.76;99661.41;4455523;32;34654;-82
2022/08/02 23:30:22;;;;;;;2.08;0.88;;;;;;;23.53;45.82;99670.41;4460388;32;34038;-82
2022/08/02 23:32:52;;;;;;;;;;;;;;;23.53;45.56;99659.81;4461545;32;34117;-83
2022/08/02 23:35:21;;;;;;;1.45;0.85;;;;;;;23.66;45.64;99663.34;4454563;32;33559;-81
2022/08/02 23:37:50;;;;;;;1.12;0.82;;;;;;;23.67;45.42;99664.19;4461776;32;33926;-80
2022/08/02 23:40:30;;;;;;;1.70;1.00;;;;;;;23.59;46.02;99660.25;4459652;32;35492;-81
2022/08/02 23:43:10;;;;;;;0.80;0.70;;;;;;;23.51;46.55;99656.41;4459965;32;34441;-82
2022/08/02 23:45:44;;;;;;;2.30;1.00;;;;;;;23.63;45.61;99655.59;4458106;32;33401;-81
2022/08/02 23:48:13;;;;;;;1.02;0.80;;;;;;;23.36;47.03;99659.16;4464028;32;33895;-82
2022/08/02 23:50:42;;;;;;;0.62;0.60;;;;;;;23.51;46.17;99653.78;4449335;32;33865;-81
2022/08/02 23:53:11;;;;;;;1.00;0.65;;;;;;;23.60;46.08;99654.00;4453165;32;34636;-82
2022/08/02 23:55:39;;;;;;;0.75;0.73;;;;;;;23.38;46.82;99662.53;4462863;32;33262;-82
2022/08/02 23:58:09;;;;;;;4.45;1.62;;;;;;;23.36;46.73;99667.09;4464523;32;33879;-80
